Aviation Digital Data Service (ADDS)

Output produced by METARs form (0841 UTC 10 February 2016)
found at http://www.aviationweather.gov/adds/metars/
 
KLNS 100827Z AUTO 27012KT 3SM -SN BR OVC027 M02/M03 A2962 RMK AO2 P0000 T10221033
KLNS 100808Z AUTO 27010KT 1 1/4SM -SN BR FEW007 OVC024 M03/M03 A2962 RMK AO2 P0000 T10281033
KLNS 100753Z AUTO 27011KT 1 3/4SM -SN BR SCT006 OVC040 M03/M03 A2962 RMK AO2 SLP033 P0000 T10281033
KLNS 100741Z AUTO 27011KT 2 1/2SM -SN BR FEW008 OVC048 M02/M03 A2962 RMK AO2 P0000 T10221033
KLNS 100713Z AUTO 27013KT 3SM -SN BR OVC043 M02/M03 A2962 RMK AO2 P0000 T10221033
KLNS 100653Z AUTO 28012KT 2SM -SN BR FEW010 OVC033 M02/M03 A2962 RMK AO2 SNB0554 SLP033 P0000 T10221033
KLNS 100651Z AUTO 27011KT 2SM -SN BR FEW010 OVC033 M02/M03 A2962 RMK AO2 SNB0554 P0000
KLNS 100641Z AUTO 27012KT 3SM -SN BR FEW010 OVC035 M02/M03 A2962 RMK AO2 SNB0554 P0000 T10221033
KLNS 100628Z AUTO 27012KT 2SM -SN BR SCT010 OVC035 M02/M03 A2962 RMK AO2 SNB0554 P0000 T10171028
KLNS 100553Z AUTO 27010KT 4SM BR FEW007 BKN012 OVC070 M02/M03 A2962 RMK AO2 SNE51 SLP034 P0000 60002 T10171028 11006 21017 51000
KLNS 100535Z AUTO 27010KT 3SM -SN BR SCT007 BKN013 OVC046 M02/M02 A2962 RMK AO2 P0000 T10171022
KLNS 100503Z AUTO 27010KT 3SM -SN BR OVC009 M01/M02 A2962 RMK AO2 P0000 T10111022
KLNS 100453Z AUTO 27011KT 3SM -SN BR BKN010 OVC040 M01/M02 A2962 RMK AO2 SLP034 P0000 T10111022 400001017
KLNS 100436Z AUTO 28010KT 3SM -SN BR BKN009 OVC038 M01/M02 A2962 RMK AO2 P0000 T10111022
KLNS 100411Z AUTO 27008KT 2 1/2SM -SN BR BKN008 BKN012 OVC028 M01/M02 A2962 RMK AO2 P0000 T10111017
KLNS 100353Z AUTO 27009KT 2SM -SN BR FEW006 SCT019 OVC027 M01/M02 A2962 RMK AO2 SLP034 P0000 T10111017
KLNS 100343Z AUTO 27009KT 1 3/4SM -SN BR FEW006 SCT017 OVC029 M01/M02 A2962 RMK AO2 P0000 T10111017
KLNS 100336Z AUTO 26011KT 2SM -SN BR SCT006 SCT015 OVC033 M01/M02 A2961 RMK AO2 P0000 T10111017
KLNS 100326Z 27010KT 2 1/2SM -SN BR SCT006 BKN013 OVC035 M01/M02 A2962 RMK AO2 P0000 T10111017
KLNS 100253Z AUTO 27009KT 2SM -SN BR BKN005 OVC013 M01/M01 A2962 RMK AO2 CIG 004V009 SLP033 P0001 60002 T10061011 53004
KLNS 100224Z 25005KT 1 1/4SM -SN BR BKN005 OVC010 M01/M01 A2961 RMK AO2 P0001 T10061011
KLNS 100153Z 27003KT 1SM -SN BR OVC004 M01/M01 A2961 RMK AO2 CIG 003V007 SLP032 P0000 T10111011
KLNS 100140Z 27004KT 1 1/4SM -SN BR OVC004 M01/M01 A2961 RMK AO2 P0000 T10111011
KLNS 100125Z 27003KT 1 1/4SM -SN BR BKN005 BKN014 OVC021 M01/M01 A2961 RMK AO2 P0000 T10111011
KLNS 100111Z 00000KT 1 1/4SM -SN BR FEW005 SCT015 OVC025 M01/M01 A2961 RMK AO2 P0000 T10061011
KLNS 100102Z 00000KT 1 1/2SM -SN BR FEW024 OVC029 M01/M01 A2961 RMK AO2 P0000 T10111011
KLNS 100053Z 00000KT 1 1/2SM -SN BR SCT022 OVC033 M01/M01 A2961 RMK AO2 SLP030 P0001 T10111011
KLNS 100008Z 00000KT 1 1/4SM -SN BR OVC028 M01/M01 A2961 RMK AO2 P0000 T10111011
KLNS 092353Z 00000KT 1 1/4SM -SN BR OVC030 M01/M01 A2961 RMK AO2 SLP029 P0000 60018 T10061011 11006 21011 53018
KLNS 092346Z 00000KT 1 1/4SM -SN BR OVC030 M01/M01 A2960 RMK AO2 P0000 T10061011
KLNS 092307Z 12003KT 1 1/2SM -SN BR OVC028 M01/M01 A2959 RMK AO2 P0000 T10111011
KLNS 092253Z 11004KT 2SM -SN BR BKN028 OVC035 M01/M02 A2959 RMK AO2 SLP023 P0001 T10111017
KLNS 092237Z 11003KT 1SM -SN BR OVC029 M01/M01 A2958 RMK AO2 P0001 T10111011
KLNS 092215Z 00000KT 3/4SM -SN BR BKN024 OVC032 M01/M01 A2957 RMK AO2 P0001 T10061011
KLNS 092202Z 00000KT 1SM -SN BR FEW004 BKN026 OVC034 M01/M01 A2957 RMK AO2 P0000 T10061011
KLNS 092153Z 00000KT 3/4SM -SN BR FEW003 BKN024 OVC034 M01/M01 A2957 RMK AO2 SLP016 P0001 T10111011
KLNS 092126Z 10004KT 1/2SM SN FZFG FEW002 OVC021 M01/M01 A2956 RMK AO2 P0001 T10111011
KLNS 092053Z 08004KT 1/2SM SN FZFG VV018 M01/M01 A2955 RMK AO2 SLP010 P0002 60016 T10061011 53005
KLNS 092044Z 08004KT 1/2SM SN FZFG FEW004 OVC015 M01/M01 A2955 RMK AO2 P0002 T10061011
KLNS 092020Z 07003KT 1/2SM SN FZFG VV016 M01/M01 A2955 RMK AO2 P0001 T10061011
KLNS 092001Z 05004KT 1/2SM SN FZFG VV011 M01/M01 A2954 RMK AO2 P0000 T10061011
KLNS 091953Z 00000KT 1/4SM SN FZFG VV010 M01/M01 A2954 RMK AO2 SLP006 P0007 T10061011
KLNS 091853Z 00000KT 1/4SM SN FZFG VV006 M01/M01 A2954 RMK AO2 SLP005 P0007 T10061011
KLNS 091804Z 09008KT 1/4SM +SN FZFG VV009 M01/M02 A2953 RMK AO2 P0001 T10111017
KLNS 091753Z 09007KT 1/2SM SN FZFG FEW004 OVC010 M01/M02 A2954 RMK AO2 SLP005 P0004 60012 T10111017 11011 21017
KLNS 091745Z 08006KT 1/2SM SN FZFG VV010 M01/M02 A2954 RMK AO2 P0003 T10111017
KLNS 091728Z 07006KT 1/4SM +SN FZFG VV009 M01/M02 A2955 RMK AO2 P0003 T10111017
KLNS 091705Z 09005KT 3/4SM -SN BR VV014 M01/M02 A2956 RMK AO2 P0001 T10111017
KLNS 091653Z 08005KT 3/4SM -SN BR M01/M02 A2956 RMK AO2 SNB35 SLP014 P0001 T10111017
KLNS 091649Z 08006KT 1/2SM SN FZFG M01/M02 A2956 RMK AO2 SNB35 P0001
KLNS 091630Z AUTO 08006KT 3/4SM -SN BR FEW007 SCT011 OVC017 M01/M02 A2957 RMK AO2 P0000 T10111017
KLNS 091620Z AUTO 08007KT 1SM -SN BR BKN009 OVC015 M01/M02 A2958 RMK AO2 P0000 T10111022
KLNS 091607Z AUTO 08006KT 3/4SM -SN BR FEW007 OVC013 M01/M02 A2958 RMK AO2 P0000 T10111017
KLNS 091553Z AUTO 08007KT 1/2SM SN FZFG VV011 M01/M02 A2958 RMK AO2 SLP020 P0005 T10111017
KLNS 091549Z AUTO 08006KT 1/2SM SN FZFG VV010 M01/M02 A2958 RMK AO2 P0004
KLNS 091516Z AUTO 07007KT 1/4SM +SN FZFG VV008 M01/M02 A2959 RMK AO2 P0002 T10111017
KLNS 091501Z AUTO 08005KT 1/4SM SN FZFG VV012 M01/M02 A2959 RMK AO2 P0001 T10111017
KLNS 091453Z AUTO 08008KT 1/2SM SN FZFG VV013 M01/M02 A2959 RMK AO2 SLP025 P0001 60002 I3/// T10111022 58002
KLNS 091450Z AUTO 08007KT 1/2SM SN FZFG VV015 M01/M02 A2960 RMK AO2 P0001
KLNS 091435Z AUTO 07008KT 1SM -SN BR FEW007 OVC018 M01/M02 A2960 RMK AO2 P0000 T10111022
KLNS 091415Z AUTO 07008KT 3/4SM -SN BR SCT007 OVC020 M01/M02 A2960 RMK AO2 P0000 T10111022
KLNS 091353Z AUTO 08008KT 1 1/4SM -SN BR SCT006 BKN026 OVC035 M01/M02 A2960 RMK AO2 SLP028 P0000 T10111022
KLNS 091345Z AUTO 07008KT 1SM -SN BR SCT006 SCT015 OVC024 M01/M02 A2960 RMK AO2 P0000 T10111022
KLNS 091321Z AUTO 08009KT 1/2SM SN FZFG FEW005 OVC015 M02/M02 A2961 RMK AO2 P0000 T10171022
KLNS 091301Z AUTO 08009KT 3/4SM -SN BR SCT007 OVC012 M02/M02 A2960 RMK AO2 P0000 T10171022
KLNS 091253Z AUTO 08010KT 1SM -SN BR BKN007 OVC013 M02/M02 A2960 RMK AO2 FZRAE1159SNB1159B15 SLP026 P0001 I1/// T10171022
KLNS 091245Z AUTO 08009KT 1SM -SN BR BKN007 OVC013 M02/M02 A2960 RMK AO2 FZRAE1159SNB1159B15 P0001 I1/// T10171022
KLNS 091237Z AUTO 08008KT 3/4SM -SN BR M02/M02 A2960 RMK AO2 FZRAE1159SNB1159B15 P0001 I1/// T10171022
KLNS 091229Z AUTO 08008KT 1SM -SN BR M02/M02 A2960 RMK AO2 FZRAE1159SNB1159B15 P0001 I1/// T10171022
KLNS 091205Z AUTO 08008KT 3SM -SN BR OVC006 M02/M02 A2960 RMK AO2 FZRAE1159SNB1159 P0000 I1000 T10171022
KLNS 091153Z AUTO 08007KT 3SM -FZRA BR OVC006 M02/M02 A2961 RMK AO2 FZRAB50 SLP028 P0000 60000 70009 I1001 I6001 T10171022 11006 21017 53004
KLNS 091053Z AUTO 08008KT 4SM BR OVC009 M01/M02 A2960 RMK AO2 SLP026 T10111022
KLNS 091049Z AUTO 08008KT 5SM BR OVC009 M01/M02 A2960 RMK AO2
KLNS 090953Z AUTO 09008KT 9SM OVC011 M01/M02 A2959 RMK AO2 SLP024 T10111022
KLNS 090853Z AUTO 08006KT 8SM OVC010 M01/M02 A2960 RMK AO2 SLP026 60000 T10111022 58019
KLNS 090753Z AUTO 11009KT 6SM BR OVC011 M01/M02 A2963 RMK AO2 SNE26B44E50 SLP036 P0000 T10111017
KLNS 090722Z AUTO 10008KT 3SM -SN BR SCT006 OVC011 M01/M02 A2963 RMK AO2 P0000 T10111017
KLNS 090717Z AUTO 10007KT 2 1/2SM -SN BR BKN008 OVC012 M01/M02 A2964 RMK AO2 CIG 004V010 P0000 T10111017
KLNS 090704Z AUTO 11007KT 2SM -SN BR SCT006 BKN010 OVC014 M01/M01 A2964 RMK AO2 P0000 T10111011
KLNS 090653Z AUTO 11006KT 1 3/4SM -SN BR BKN005 BKN010 OVC014 M01/M01 A2964 RMK AO2 SLP040 P0000 T10111011
KLNS 090630Z AUTO 10008KT 1 3/4SM -SN BR SCT005 BKN009 OVC021 M01/M01 A2964 RMK AO2 P0000 T10061011
KLNS 090620Z AUTO 12008KT 2SM -SN BR SCT005 BKN011 OVC021 M01/M01 A2965 RMK AO2 P0000 T10061011
KLNS 090611Z AUTO 13011KT 1 3/4SM -SN BR SCT005 OVC023 M01/M01 A2965 RMK AO2 P0000 T10061011
KLNS 090601Z AUTO 12012KT 1 1/4SM -SN BR BKN004 OVC023 M01/M01 A2965 RMK AO2 P0000 T10061011
KLNS 090553Z AUTO 11009KT 1 1/4SM -SN BR OVC005 M01/M01 A2965 RMK AO2 CIG 003V008 SLP045 P0000 60009 T10061006 10022 21006 58017
KLNS 090516Z AUTO 11009KT 1 1/2SM -SN BR OVC005 M01/M01 A2966 RMK AO2 CIG 003V008 P0000 T10061006
KLNS 090453Z AUTO 11009KT 1 1/4SM -SN BR OVC004 00/M01 A2967 RMK AO2 SLP051 P0001 T00001006 400501011
KLNS 090423Z AUTO 11010KT 1SM -SN BR OVC004 00/M01 A2968 RMK AO2 P0000 T00001006
KLNS 090401Z AUTO 11009KT 3/4SM -SN BR OVC003 00/00 A2969 RMK AO2 P0000 T00000000
KLNS 090353Z AUTO 12009KT 1SM -SN BR OVC003 00/00 A2969 RMK AO2 SLP056 P0004 T00000000
KLNS 090320Z 10006KT 3/4SM -SN BR VV004 00/00 A2969 RMK AO2 P0002 T00000000
KLNS 090253Z 11004KT 3/4SM -SN BR VV006 00/00 A2970 RMK AO2 SLP062 P0003 60004 T00000000 58002
KLNS 090233Z 12004KT 3/4SM -SN BR VV006 00/00 A2971 RMK AO2 P0002 T00000000
KLNS 090202Z 14005KT 1 1/4SM -SN BR BKN006 OVC029 01/00 A2971 RMK AO2 P0000 T00060000
KLNS 090153Z 14006KT 2 1/2SM -SN BR BKN007 OVC031 01/00 A2971 RMK AO2 SLP064 P0001 T00060000
KLNS 090135Z 13006KT 4SM -SN BR FEW006 BKN027 OVC050 01/00 A2971 RMK AO2 P0001 T00060000
KLNS 090053Z 14009KT 4SM -SN BR OVC022 01/M01 A2971 RMK AO2 UPB26E28SNB14E26B28 SLP065 P0000 T00111006
KLNS 090033Z 14007KT 7SM -SN OVC026 02/M01 A2971 RMK AO2 UPB26E28SNB14E26B28 P0000 T00221011
KLNS 082353Z 14006KT 10SM BKN050 BKN070 OVC100 02/M02 A2971 RMK AO2 SLP064 T00221017 10050 20022 53008
KLNS 082253Z 13005KT 10SM OVC044 02/M02 A2970 RMK AO2 SLP061 T00221017
KLNS 082153Z 12006KT 10SM OVC043 03/M02 A2969 RMK AO2 SLP058 T00331017
KLNS 082053Z 10007KT 10SM OVC038 03/M02 A2969 RMK AO2 SLP055 T00331017 56007